createdAt,value
2022-10-18T00:01:48.108Z,102139.50
2022-10-18T00:04:15.308Z,102141.44
2022-10-18T00:06:43.581Z,102140.31
2022-10-18T00:09:11.118Z,102151.59
2022-10-18T00:11:37.862Z,102149.66
2022-10-18T00:14:04.951Z,102151.75
2022-10-18T00:16:31.738Z,102140.78
2022-10-18T00:18:58.820Z,102142.03
2022-10-18T00:21:25.862Z,102136.63
2022-10-18T00:23:57.883Z,102139.84
2022-10-18T00:26:29.110Z,102147.94
2022-10-18T00:29:01.471Z,102147.16
2022-10-18T00:31:33.735Z,102146.47
2022-10-18T00:34:02.920Z,102143.03
2022-10-18T00:36:31.793Z,102147.88
2022-10-18T00:38:58.830Z,102150.06
2022-10-18T00:41:29.178Z,102142.53
2022-10-18T00:43:57.546Z,102148.59
2022-10-18T00:46:30.479Z,102142.53
2022-10-18T00:48:59.936Z,102150.75
2022-10-18T00:51:53.813Z,102160.13
2022-10-18T00:54:21.072Z,102151.41
2022-10-18T00:56:48.000Z,102146.69
2022-10-18T00:59:16.509Z,102158.47
2022-10-18T01:01:44.002Z,102161.53
2022-10-18T01:04:11.934Z,102155.97
2022-10-18T01:06:45.819Z,102154.81
2022-10-18T01:09:24.848Z,102159.06
2022-10-18T01:11:56.513Z,102159.50
2022-10-18T01:14:45.071Z,102162.34
2022-10-18T01:17:23.644Z,102151.84
2022-10-18T01:20:03.655Z,102148.53
2022-10-18T01:22:36.321Z,102150.03
2022-10-18T01:25:18.409Z,102150.94
2022-10-18T01:28:20.590Z,102159.50
2022-10-18T01:30:57.489Z,102154.44
2022-10-18T01:33:38.060Z,102163.47
2022-10-18T01:36:10.399Z,102156.25
2022-10-18T01:38:38.304Z,102158.53
2022-10-18T01:41:07.422Z,102159.75
2022-10-18T01:43:37.658Z,102153.91
2022-10-18T01:46:05.035Z,102164.56
2022-10-18T01:48:32.287Z,102164.34
2022-10-18T01:50:59.267Z,102160.66
2022-10-18T01:53:29.819Z,102157.91
2022-10-18T01:56:19.044Z,102159.84
2022-10-18T01:58:56.019Z,102165.00
2022-10-18T02:01:49.377Z,102159.41
2022-10-18T02:04:42.183Z,102160.66
2022-10-18T02:07:37.300Z,102161.47
2022-10-18T02:10:04.016Z,102173.19
2022-10-18T02:12:32.667Z,102168.97
2022-10-18T02:15:01.589Z,102155.47
2022-10-18T02:17:30.257Z,102165.09
2022-10-18T02:19:57.414Z,102157.50
2022-10-18T02:22:27.294Z,102162.94
2022-10-18T02:24:56.624Z,102158.41
2022-10-18T02:27:23.611Z,102154.75
2022-10-18T02:29:50.703Z,102154.09
2022-10-18T02:33:06.546Z,102152.16
2022-10-18T02:35:36.975Z,102149.75
2022-10-18T02:38:04.996Z,102151.44
2022-10-18T02:40:34.140Z,102147.66
2022-10-18T02:46:45.020Z,102150.88
2022-10-18T02:49:11.875Z,102148.69
2022-10-18T02:51:38.564Z,102155.25
2022-10-18T02:54:05.382Z,102153.06
2022-10-18T02:56:32.141Z,102169.09
2022-10-18T02:58:58.883Z,102165.81
2022-10-18T03:01:25.933Z,102178.88
2022-10-18T03:03:52.819Z,102181.94
2022-10-18T03:06:19.546Z,102175.34
2022-10-18T03:08:46.458Z,102181.28
2022-10-18T03:11:13.240Z,102175.91
2022-10-18T03:13:45.096Z,102177.81
2022-10-18T03:16:12.866Z,102177.34
2022-10-18T03:18:39.746Z,102184.56
2022-10-18T03:23:49.170Z,102169.09
2022-10-18T03:26:15.927Z,102173.09
2022-10-18T03:28:42.731Z,102180.66
2022-10-18T03:31:09.669Z,102201.56
2022-10-18T03:33:36.964Z,102190.03
2022-10-18T03:36:03.920Z,102185.97
2022-10-18T03:38:31.304Z,102186.31
2022-10-18T03:40:57.993Z,102182.41
2022-10-18T03:43:25.147Z,102185.50
2022-10-18T03:45:52.730Z,102190.91
2022-10-18T03:48:24.050Z,102184.63
2022-10-18T03:50:54.250Z,102188.66
2022-10-18T03:53:21.511Z,102182.09
2022-10-18T03:55:55.440Z,102203.66
2022-10-18T03:58:23.138Z,102187.91
2022-10-18T04:00:51.667Z,102196.41
2022-10-18T04:03:19.498Z,102187.84
2022-10-18T04:05:47.121Z,102191.38
2022-10-18T04:08:14.491Z,102198.09
2022-10-18T04:10:41.958Z,102211.41
2022-10-18T04:13:08.875Z,102215.63
2022-10-18T04:15:35.637Z,102214.63
2022-10-18T04:18:02.662Z,102208.13
2022-10-18T04:20:29.730Z,102203.03
2022-10-18T04:22:57.680Z,102197.00
2022-10-18T04:25:25.138Z,102203.41
2022-10-18T04:27:51.794Z,102202.44
2022-10-18T04:30:18.793Z,102194.66
2022-10-18T04:32:45.563Z,102203.16
2022-10-18T04:35:12.328Z,102201.28
2022-10-18T04:37:39.222Z,102200.75
2022-10-18T04:40:08.226Z,102201.28
2022-10-18T04:42:34.965Z,102197.75
2022-10-18T04:45:01.696Z,102202.06
2022-10-18T04:47:28.519Z,102211.81
2022-10-18T04:49:55.588Z,102206.00
2022-10-18T04:52:22.288Z,102204.81
2022-10-18T04:54:48.981Z,102210.13
2022-10-18T04:57:15.979Z,102215.59
2022-10-18T04:59:42.852Z,102217.53
2022-10-18T05:02:09.629Z,102220.19
2022-10-18T05:04:36.617Z,102231.31
2022-10-18T05:07:03.289Z,102219.22
2022-10-18T05:09:30.056Z,102229.00
2022-10-18T05:11:56.759Z,102227.72
2022-10-18T05:14:23.511Z,102228.75
2022-10-18T05:16:50.294Z,102222.13
2022-10-18T05:19:17.154Z,102224.88
2022-10-18T05:21:43.932Z,102221.50
2022-10-18T05:24:13.640Z,102217.94
2022-10-18T05:26:40.471Z,102206.84
2022-10-18T05:29:07.364Z,102220.22
2022-10-18T05:31:34.398Z,102217.66
2022-10-18T05:34:02.211Z,102215.88
2022-10-18T05:36:29.037Z,102222.69
2022-10-18T05:38:58.652Z,102218.31
2022-10-18T05:41:27.770Z,102216.06
2022-10-18T05:43:54.535Z,102219.06
2022-10-18T05:46:21.205Z,102209.75
2022-10-18T05:48:51.634Z,102210.38
2022-10-18T05:51:19.197Z,102214.13
2022-10-18T05:53:45.880Z,102205.41
2022-10-18T05:56:12.606Z,102214.72
2022-10-18T05:58:39.946Z,102212.44
2022-10-18T06:01:07.344Z,102213.63
2022-10-18T06:03:34.132Z,102203.16
2022-10-18T06:06:06.491Z,102202.66
2022-10-18T06:08:33.875Z,102217.00
2022-10-18T06:11:00.692Z,102221.69
2022-10-18T06:13:29.109Z,102221.53
2022-10-18T06:15:58.012Z,102226.22
2022-10-18T06:18:24.991Z,102238.59
2022-10-18T06:20:59.275Z,102233.91
2022-10-18T06:23:27.529Z,102233.91
2022-10-18T06:25:54.525Z,102225.22
2022-10-18T06:28:21.311Z,102231.25
2022-10-18T06:30:48.009Z,102235.94
2022-10-18T06:33:14.831Z,102238.19
2022-10-18T06:35:41.571Z,102245.56
2022-10-18T06:38:08.266Z,102262.69
2022-10-18T06:40:38.258Z,102270.91
2022-10-18T06:43:20.545Z,102266.56
2022-10-18T06:45:48.418Z,102264.47
2022-10-18T06:48:16.497Z,102264.00
2022-10-18T06:50:44.421Z,102264.00
2022-10-18T06:53:11.127Z,102261.59
2022-10-18T06:55:37.930Z,102273.00
2022-10-18T06:58:04.910Z,102271.41
2022-10-18T07:00:32.709Z,102274.41
2022-10-18T07:02:59.399Z,102271.66
2022-10-18T07:05:26.175Z,102280.84
2022-10-18T07:07:56.337Z,102281.78
2022-10-18T07:10:24.413Z,102283.06
2022-10-18T07:13:07.955Z,102283.06
2022-10-18T07:15:41.060Z,102279.56
2022-10-18T07:18:11.527Z,102298.06
2022-10-18T07:20:46.069Z,102302.06
2022-10-18T07:23:15.410Z,102302.22
2022-10-18T07:25:55.001Z,102302.22
2022-10-18T07:28:21.693Z,102317.38
2022-10-18T07:30:51.151Z,102318.53
2022-10-18T07:33:18.147Z,102326.75
2022-10-18T07:35:45.135Z,102329.00
2022-10-18T07:38:12.157Z,102321.59
2022-10-18T07:40:39.180Z,102323.53
2022-10-18T07:43:08.271Z,102318.22
2022-10-18T07:48:04.941Z,102320.03
2022-10-18T07:50:32.203Z,102320.34
2022-10-18T07:52:59.506Z,102319.53
2022-10-18T07:55:45.335Z,102336.19
2022-10-18T07:58:17.219Z,102346.34
2022-10-18T08:00:48.415Z,102334.81
2022-10-18T08:03:19.804Z,102347.88
2022-10-18T08:05:55.059Z,102362.00
2022-10-18T08:08:23.306Z,102372.00
2022-10-18T08:10:52.773Z,102373.22
2022-10-18T08:13:20.802Z,102376.03
2022-10-18T08:15:48.342Z,102386.63
2022-10-18T08:18:15.812Z,102387.28
2022-10-18T08:20:46.747Z,102382.56
2022-10-18T08:23:13.690Z,102381.84
2022-10-18T08:25:40.684Z,102388.13
2022-10-18T08:28:07.802Z,102395.66
2022-10-18T08:30:36.715Z,102392.84
2022-10-18T08:33:04.183Z,102390.31
2022-10-18T08:35:31.898Z,102397.66
2022-10-18T08:37:59.422Z,102400.09
2022-10-18T08:40:29.168Z,102389.72
2022-10-18T08:43:28.839Z,102406.72
2022-10-18T08:45:55.891Z,102406.78
2022-10-18T08:48:44.581Z,102403.03
2022-10-18T08:51:33.915Z,102396.28
2022-10-18T08:54:10.727Z,102402.59
2022-10-18T08:56:39.641Z,102390.72
2022-10-18T08:59:13.224Z,102397.19
2022-10-18T09:04:39.411Z,102403.16
2022-10-18T09:07:09.066Z,102413.47
2022-10-18T09:09:40.346Z,102408.00
2022-10-18T09:12:23.971Z,102402.50
2022-10-18T09:15:15.266Z,102416.91
2022-10-18T09:17:53.178Z,102419.31
2022-10-18T09:20:20.476Z,102429.81
2022-10-18T09:22:53.418Z,102425.31
2022-10-18T09:25:23.158Z,102425.03
2022-10-18T09:27:53.271Z,102421.22
2022-10-18T09:30:26.576Z,102430.22
2022-10-18T09:33:23.093Z,102418.47
2022-10-18T09:35:55.650Z,102420.16
2022-10-18T09:41:14.597Z,102419.88
2022-10-18T09:43:50.720Z,102424.78
2022-10-18T09:46:19.522Z,102425.16
2022-10-18T09:49:00.746Z,102442.91
2022-10-18T09:51:34.332Z,102449.59
2022-10-18T09:54:10.305Z,102442.78
2022-10-18T09:56:41.988Z,102450.84
2022-10-18T09:59:34.739Z,102459.34
2022-10-18T10:02:03.119Z,102452.94
2022-10-18T10:04:30.037Z,102451.75
2022-10-18T10:07:00.974Z,102453.78
2022-10-18T10:09:36.993Z,102460.78
2022-10-18T10:12:04.038Z,102455.13
2022-10-18T10:14:30.901Z,102456.00
2022-10-18T10:17:02.837Z,102448.47
2022-10-18T10:19:33.814Z,102445.69
2022-10-18T10:22:07.396Z,102454.81
2022-10-18T10:24:43.616Z,102463.13
2022-10-18T10:27:18.320Z,102464.59
2022-10-18T10:29:56.482Z,102458.13
2022-10-18T10:34:53.514Z,102469.94
2022-10-18T10:37:23.208Z,102460.66
2022-10-18T10:40:22.132Z,102459.91
2022-10-18T10:43:08.812Z,102457.63
2022-10-18T10:46:00.172Z,102463.03
2022-10-18T10:48:32.450Z,102453.22
2022-10-18T10:51:03.935Z,102457.72
2022-10-18T10:53:34.469Z,102457.63
2022-10-18T10:56:01.722Z,102457.00
2022-10-18T10:58:30.456Z,102467.78
2022-10-18T11:00:58.909Z,102464.34
2022-10-18T11:03:29.803Z,102452.72
2022-10-18T11:05:57.972Z,102456.47
2022-10-18T11:08:27.431Z,102461.66
2022-10-18T11:11:28.613Z,102466.56
2022-10-18T11:14:24.675Z,102464.97
2022-10-18T11:17:08.307Z,102466.31
2022-10-18T11:19:55.168Z,102471.50
2022-10-18T11:22:24.989Z,102469.22
2022-10-18T11:24:51.714Z,102470.59
2022-10-18T11:27:28.558Z,102473.66
2022-10-18T11:30:26.895Z,102465.69
2022-10-18T11:33:11.186Z,102467.59
2022-10-18T11:36:16.236Z,102466.44
2022-10-18T11:38:49.172Z,102459.34
2022-10-18T11:41:19.455Z,102450.03
2022-10-18T11:44:15.763Z,102447.44
2022-10-18T11:47:03.907Z,102442.41
2022-10-18T11:49:58.118Z,102435.84
2022-10-18T11:52:41.270Z,102436.66
2022-10-18T11:55:21.024Z,102438.06
2022-10-18T11:57:59.945Z,102428.84
2022-10-18T12:00:32.818Z,102428.19
2022-10-18T12:03:21.004Z,102422.06
2022-10-18T12:05:49.278Z,102419.00
2022-10-18T12:08:40.687Z,102422.53
2022-10-18T12:11:20.518Z,102420.81
2022-10-18T12:13:54.416Z,102408.78
2022-10-18T12:16:45.657Z,102412.13
2022-10-18T12:19:26.322Z,102410.28
2022-10-18T12:21:58.375Z,102409.38
2022-10-18T12:24:28.302Z,102408.44
2022-10-18T12:26:58.927Z,102405.56
2022-10-18T12:29:31.841Z,102405.38
2022-10-18T12:32:17.028Z,102406.50
2022-10-18T12:34:49.763Z,102410.84
2022-10-18T12:37:44.448Z,102397.56
2022-10-18T12:40:30.640Z,102405.44
2022-10-18T12:42:57.903Z,102400.09
2022-10-18T12:45:27.691Z,102409.81
2022-10-18T12:47:55.925Z,102406.72
2022-10-18T12:50:30.629Z,102403.25
2022-10-18T12:53:09.953Z,102405.44
2022-10-18T12:55:38.630Z,102405.81
2022-10-18T12:58:25.952Z,102393.91
2022-10-18T13:00:55.572Z,102398.16
2022-10-18T13:03:25.252Z,102403.53
2022-10-18T13:05:56.507Z,102395.13
2022-10-18T13:08:38.414Z,102407.13
2022-10-18T13:11:07.849Z,102401.53
2022-10-18T13:13:59.357Z,102391.38
2022-10-18T13:16:49.630Z,102392.19
2022-10-18T13:20:25.719Z,102398.03
2022-10-18T13:23:24.642Z,102402.25
2022-10-18T13:26:13.366Z,102396.88
2022-10-18T13:28:46.506Z,102393.09
2022-10-18T13:31:16.200Z,102395.59
2022-10-18T13:33:43.313Z,102394.47
2022-10-18T13:36:22.896Z,102393.63
2022-10-18T13:38:50.547Z,102399.13
2022-10-18T13:41:28.346Z,102390.53
2022-10-18T13:44:37.731Z,102391.22
2022-10-18T13:47:04.423Z,102392.72
2022-10-18T13:49:40.104Z,102392.03
2022-10-18T13:52:19.284Z,102388.94
2022-10-18T13:55:20.236Z,102396.19
2022-10-18T13:58:09.033Z,102394.56
2022-10-18T14:00:54.016Z,102385.84
2022-10-18T14:03:55.747Z,102388.41
2022-10-18T14:06:27.695Z,102388.59
2022-10-18T14:09:25.641Z,102391.25
2022-10-18T14:12:28.928Z,102395.94
2022-10-18T14:15:02.418Z,102401.78
2022-10-18T14:17:40.988Z,102397.41
2022-10-18T14:20:14.789Z,102398.72
2022-10-18T14:22:43.931Z,102398.72
2022-10-18T14:25:29.272Z,102395.94
2022-10-18T14:28:12.228Z,102402.03
2022-10-18T14:31:10.118Z,102389.97
2022-10-18T14:33:46.306Z,102395.84
2022-10-18T14:36:19.062Z,102391.09
2022-10-18T14:38:52.843Z,102395.44
2022-10-18T14:41:34.199Z,102390.41
2022-10-18T14:44:16.687Z,102390.84
2022-10-18T14:46:48.447Z,102383.75
2022-10-18T14:49:15.972Z,102380.28
2022-10-18T14:51:44.622Z,102375.47
2022-10-18T14:54:26.114Z,102382.13
2022-10-18T14:56:56.501Z,102383.28
2022-10-18T14:59:45.532Z,102375.13
2022-10-18T15:02:23.901Z,102382.06
2022-10-18T15:05:07.672Z,102373.06
2022-10-18T15:07:35.336Z,102372.16
2022-10-18T15:10:21.401Z,102382.16
2022-10-18T15:13:08.847Z,102373.34
2022-10-18T15:15:35.946Z,102364.50
2022-10-18T15:18:02.592Z,102368.84
2022-10-18T15:20:34.454Z,102369.78
2022-10-18T15:23:39.663Z,102375.53
2022-10-18T15:26:11.598Z,102368.53
2022-10-18T15:28:59.391Z,102373.00
2022-10-18T15:31:35.719Z,102370.81
2022-10-18T15:34:08.749Z,102371.75
2022-10-18T15:36:36.023Z,102370.72
2022-10-18T15:39:21.284Z,102367.03
2022-10-18T15:41:56.889Z,102365.66
2022-10-18T15:44:35.408Z,102366.84
2022-10-18T15:47:20.311Z,102372.09
2022-10-18T15:49:49.060Z,102370.16
2022-10-18T15:52:22.062Z,102375.44
2022-10-18T15:54:53.803Z,102374.47
2022-10-18T15:57:24.795Z,102379.88
2022-10-18T16:00:00.595Z,102378.25
2022-10-18T16:02:28.407Z,102382.03
2022-10-18T16:04:55.099Z,102373.06
2022-10-18T16:07:21.895Z,102375.50
2022-10-18T16:09:48.748Z,102382.38
2022-10-18T16:12:40.847Z,102380.44
2022-10-18T16:15:08.384Z,102384.09
2022-10-18T16:17:35.622Z,102381.09
2022-10-18T16:20:02.634Z,102386.47
2022-10-18T16:22:31.149Z,102384.22
2022-10-18T16:25:00.312Z,102388.28
2022-10-18T16:27:30.191Z,102387.03
2022-10-18T16:29:56.975Z,102387.97
2022-10-18T16:32:24.013Z,102392.88
2022-10-18T16:34:50.789Z,102400.69
2022-10-18T16:37:17.466Z,102404.44
2022-10-18T16:39:44.496Z,102407.41
2022-10-18T16:42:16.553Z,102403.53
2022-10-18T16:44:43.455Z,102406.03
2022-10-18T16:47:11.596Z,102414.53
2022-10-18T16:49:45.427Z,102416.81
2022-10-18T16:52:49.881Z,102422.63
2022-10-18T16:55:21.443Z,102418.31
2022-10-18T16:57:56.706Z,102420.69
2022-10-18T17:00:26.787Z,102406.56
2022-10-18T17:03:19.096Z,102433.06
2022-10-18T17:05:49.436Z,102416.66
2022-10-18T17:08:19.539Z,102424.63
2022-10-18T17:10:48.540Z,102424.22
2022-10-18T17:13:30.560Z,102423.41
2022-10-18T17:15:59.536Z,102423.56
2022-10-18T17:18:27.543Z,102443.97
2022-10-18T17:20:54.623Z,102442.63
2022-10-18T17:23:21.640Z,102445.63
2022-10-18T17:26:29.671Z,102444.47
2022-10-18T17:29:01.138Z,102447.22
2022-10-18T17:31:28.950Z,102449.97
2022-10-18T17:33:56.093Z,102447.38
2022-10-18T17:36:25.824Z,102441.63
2022-10-18T17:38:53.979Z,102446.97
2022-10-18T17:41:21.416Z,102451.03
2022-10-18T17:43:50.758Z,102454.09
2022-10-18T17:46:18.262Z,102464.28
2022-10-18T17:48:45.552Z,102468.22
2022-10-18T17:51:14.918Z,102458.03
2022-10-18T17:53:44.272Z,102454.13
2022-10-18T17:56:12.239Z,102447.59
2022-10-18T17:58:39.470Z,102454.69
2022-10-18T18:01:24.006Z,102459.88
2022-10-18T18:03:56.848Z,102446.19
2022-10-18T18:06:31.551Z,102442.63
2022-10-18T18:09:20.369Z,102450.63
2022-10-18T18:11:51.896Z,102451.22
2022-10-18T18:14:19.013Z,102447.31
2022-10-18T18:19:32.429Z,102460.56
2022-10-18T18:21:59.926Z,102461.53
2022-10-18T18:24:26.956Z,102474.44
2022-10-18T18:26:55.538Z,102453.97
2022-10-18T18:29:23.784Z,102474.47
2022-10-18T18:31:50.773Z,102470.34
2022-10-18T18:34:21.568Z,102473.72
2022-10-18T18:36:48.819Z,102470.03
2022-10-18T18:39:26.092Z,102467.91
2022-10-18T18:41:53.912Z,102474.69
2022-10-18T18:44:23.188Z,102471.78
2022-10-18T18:46:49.954Z,102467.72
2022-10-18T18:49:16.735Z,102467.56
2022-10-18T18:51:43.734Z,102464.88
2022-10-18T18:54:12.890Z,102461.94
2022-10-18T18:56:44.785Z,102472.75
2022-10-18T18:59:15.887Z,102460.94
2022-10-18T19:01:42.997Z,102466.78
2022-10-18T19:04:10.618Z,102470.00
2022-10-18T19:06:42.418Z,102459.84
2022-10-18T19:09:23.277Z,102465.00
2022-10-18T19:11:55.989Z,102457.25
2022-10-18T19:14:26.215Z,102458.06
2022-10-18T19:16:55.024Z,102463.22
2022-10-18T19:19:23.701Z,102464.53
2022-10-18T19:21:54.057Z,102457.75
2022-10-18T19:24:27.478Z,102458.41
2022-10-18T19:26:56.814Z,102457.28
2022-10-18T19:29:29.011Z,102458.41
2022-10-18T19:32:00.589Z,102449.53
2022-10-18T19:34:29.898Z,102447.94
2022-10-18T19:36:57.092Z,102443.41
2022-10-18T19:39:28.161Z,102450.69
2022-10-18T19:41:57.326Z,102450.50
2022-10-18T19:44:25.789Z,102446.31
2022-10-18T19:46:52.985Z,102448.09
2022-10-18T19:49:21.170Z,102448.72
2022-10-18T19:51:48.439Z,102443.41
2022-10-18T19:54:19.003Z,102456.28
2022-10-18T19:56:46.193Z,102451.00
2022-10-18T19:59:15.458Z,102430.25
2022-10-18T20:01:43.993Z,102438.22
2022-10-18T20:04:11.793Z,102438.88
2022-10-18T20:06:39.875Z,102436.78
2022-10-18T20:09:07.839Z,102458.25
2022-10-18T20:11:35.304Z,102463.41
2022-10-18T20:14:02.529Z,102453.25
2022-10-18T20:16:31.112Z,102454.50
2022-10-18T20:18:59.944Z,102455.50
2022-10-18T20:21:35.932Z,102461.50
2022-10-18T20:24:07.733Z,102462.50
2022-10-18T20:26:36.094Z,102465.78
2022-10-18T20:29:03.559Z,102465.88
2022-10-18T20:31:35.664Z,102466.28
2022-10-18T20:34:05.790Z,102444.66
2022-10-18T20:36:33.055Z,102459.31
2022-10-18T20:39:00.543Z,102461.13
2022-10-18T20:41:34.603Z,102456.94
2022-10-18T20:44:07.105Z,102465.03
2022-10-18T20:46:35.407Z,102469.47
2022-10-18T20:49:02.663Z,102470.59
2022-10-18T20:51:29.492Z,102470.13
2022-10-18T20:54:36.286Z,102471.63
2022-10-18T20:57:03.637Z,102464.31
2022-10-18T20:59:30.685Z,102471.94
2022-10-18T21:01:57.631Z,102467.38
2022-10-18T21:04:24.259Z,102460.88
2022-10-18T21:06:51.111Z,102469.91
2022-10-18T21:09:19.591Z,102471.31
2022-10-18T21:11:49.564Z,102462.97
2022-10-18T21:14:18.823Z,102464.66
2022-10-18T21:16:46.440Z,102459.84
2022-10-18T21:19:25.275Z,102454.00
2022-10-18T21:21:55.916Z,102461.38
2022-10-18T21:24:24.924Z,102459.88
2022-10-18T21:26:51.959Z,102465.03
2022-10-18T21:29:22.243Z,102456.59
2022-10-18T21:31:49.747Z,102464.22
2022-10-18T21:34:17.541Z,102459.63
2022-10-18T21:36:46.632Z,102462.59
2022-10-18T21:39:16.234Z,102460.88
2022-10-18T21:41:43.168Z,102461.53
2022-10-18T21:44:11.322Z,102455.56
2022-10-18T21:46:39.543Z,102450.13
2022-10-18T21:49:07.435Z,102452.47
2022-10-18T21:51:34.393Z,102443.91
2022-10-18T21:54:01.556Z,102446.78
2022-10-18T21:56:30.721Z,102445.53
2022-10-18T21:58:58.146Z,102452.75
2022-10-18T22:01:32.584Z,102445.03
2022-10-18T22:04:07.590Z,102458.72
2022-10-18T22:09:08.549Z,102457.91
2022-10-18T22:11:43.061Z,102453.41
2022-10-18T22:14:10.014Z,102453.47
2022-10-18T22:16:36.880Z,102438.50
2022-10-18T22:19:04.859Z,102444.28
2022-10-18T22:21:32.179Z,102438.22
2022-10-18T22:24:00.164Z,102424.19
2022-10-18T22:26:33.134Z,102423.75
2022-10-18T22:29:00.828Z,102427.06
2022-10-18T22:31:30.043Z,102431.19
2022-10-18T22:34:03.472Z,102433.69
2022-10-18T22:36:30.953Z,102429.16
2022-10-18T22:38:58.056Z,102423.56
2022-10-18T22:41:24.877Z,102421.22
2022-10-18T22:43:53.331Z,102419.41
2022-10-18T22:46:20.926Z,102417.50
2022-10-18T22:48:48.123Z,102419.16
2022-10-18T22:51:15.036Z,102427.19
2022-10-18T22:53:42.249Z,102411.75
2022-10-18T22:56:12.806Z,102412.06
2022-10-18T22:58:39.522Z,102411.69
2022-10-18T23:01:08.764Z,102416.47
2022-10-18T23:03:36.779Z,102412.22
2022-10-18T23:06:04.463Z,102408.16
2022-10-18T23:08:31.297Z,102405.88
2022-10-18T23:10:59.119Z,102406.03
2022-10-18T23:13:27.442Z,102408.78
2022-10-18T23:16:04.310Z,102403.88
2022-10-18T23:18:32.497Z,102399.84
2022-10-18T23:21:07.200Z,102405.00
2022-10-18T23:23:36.079Z,102407.81
2022-10-18T23:26:11.807Z,102391.81
2022-10-18T23:28:40.337Z,102397.66
2022-10-18T23:31:13.310Z,102409.81
2022-10-18T23:33:40.909Z,102412.84
2022-10-18T23:36:08.782Z,102403.50
2022-10-18T23:38:39.200Z,102411.34
2022-10-18T23:41:07.128Z,102406.75
2022-10-18T23:43:34.348Z,102401.50
2022-10-18T23:46:01.196Z,102399.19
2022-10-18T23:48:28.387Z,102404.81
2022-10-18T23:50:55.249Z,102405.59
2022-10-18T23:53:22.688Z,102404.78
2022-10-18T23:55:53.867Z,102406.91
2022-10-18T23:58:20.818Z,102415.25
